Time;durP1;ratioP1;P1;durP2;ratioP2;P2;SDS_P1;SDS_P2;PMS_P1;PMS_P2;Temp;Humidity;BMP_temperature;BMP_pressure;BME280_temperature;BME280_humidity;BME280_pressure;Samples;Min_cycle;Max_cycle;Signal;HPM_P1;HPM_P2
2022/12/01 00:01:22;;;;;;;64.00;42.53;;;5.80;99.90;;;;;;5055612;28;20427;-79
2022/12/01 00:03:50;;;;;;;66.40;44.00;;;5.80;99.90;;;;;;5055683;28;20458;-79
2022/12/01 00:06:20;;;;;;;70.97;42.57;;;5.80;99.90;;;;;;5055547;28;20537;-79
2022/12/01 00:11:38;;;;;;;64.90;41.97;;;5.70;99.90;;;;;;5053787;28;20549;-79
2022/12/01 00:14:07;;;;;;;69.70;43.50;;;5.80;99.90;;;;;;5053318;28;20481;-79
2022/12/01 00:16:35;;;;;;;77.30;44.53;;;5.80;99.90;;;;;;5055206;28;20519;-79
2022/12/01 00:19:03;;;;;;;66.20;43.43;;;5.80;99.90;;;;;;5055667;28;20496;-79
2022/12/01 00:21:31;;;;;;;70.83;43.43;;;5.70;99.90;;;;;;5055491;28;20441;-79
2022/12/01 00:24:00;;;;;;;74.70;44.10;;;5.70;99.90;;;;;;5053843;28;20465;-79
2022/12/01 00:26:28;;;;;;;71.80;44.43;;;5.80;99.90;;;;;;5053617;28;20473;-79
2022/12/01 00:28:59;;;;;;;72.07;44.40;;;5.80;99.90;;;;;;5073951;28;20472;-79
2022/12/01 00:31:27;;;;;;;84.57;45.73;;;5.70;99.90;;;;;;5073628;28;20491;-79
2022/12/01 00:33:55;;;;;;;77.67;47.10;;;5.70;99.90;;;;;;5073106;28;20469;-79
2022/12/01 00:36:24;;;;;;;81.13;46.13;;;5.70;99.90;;;;;;5073017;28;20973;-79
2022/12/01 00:38:53;;;;;;;76.10;43.57;;;5.70;99.90;;;;;;5074783;28;20449;-79
2022/12/01 00:41:22;;;;;;;79.87;44.50;;;5.70;99.90;;;;;;5073087;28;20446;-79
2022/12/01 00:43:50;;;;;;;75.33;44.87;;;5.70;99.90;;;;;;5073124;28;20469;-79
2022/12/01 00:46:19;;;;;;;69.23;43.23;;;5.70;99.90;;;;;;5074877;28;20445;-79
2022/12/01 00:48:49;;;;;;;75.07;44.27;;;5.70;99.90;;;;;;5073545;28;20499;-79
2022/12/01 00:51:17;;;;;;;72.77;44.87;;;5.70;99.90;;;;;;5074432;28;20466;-78
2022/12/01 00:53:45;;;;;;;75.23;44.63;;;5.70;99.90;;;;;;5074020;28;20555;-79
2022/12/01 00:56:14;;;;;;;84.47;48.90;;;5.70;99.90;;;;;;5074041;28;20437;-79
2022/12/01 00:58:42;;;;;;;87.93;49.37;;;5.70;99.90;;;;;;5074082;28;20441;-78
2022/12/01 01:01:10;;;;;;;89.40;49.70;;;5.70;99.90;;;;;;5072949;28;20445;-79
2022/12/01 01:03:40;;;;;;;96.17;49.60;;;5.70;99.90;;;;;;5072635;28;20495;-79
2022/12/01 01:06:10;;;;;;;82.67;47.30;;;5.70;99.90;;;;;;5072539;28;20449;-78
2022/12/01 01:08:39;;;;;;;86.80;48.73;;;5.60;99.90;;;;;;5072630;28;20478;-79
2022/12/01 01:11:08;;;;;;;93.50;50.30;;;5.60;99.90;;;;;;5073582;28;20449;-79
2022/12/01 01:13:37;;;;;;;86.43;49.50;;;5.60;99.90;;;;;;5073673;28;20460;-78
2022/12/01 01:16:10;;;;;;;90.33;50.10;;;5.60;99.90;;;;;;5073553;28;20437;-79
2022/12/01 01:18:39;;;;;;;82.63;46.80;;;5.60;99.90;;;;;;5070951;28;20476;-78
2022/12/01 01:21:10;;;;;;;79.43;48.03;;;5.60;99.90;;;;;;5072407;28;20445;-79
2022/12/01 01:23:38;;;;;;;95.57;50.00;;;5.60;99.90;;;;;;5072441;28;20472;-78
2022/12/01 01:26:10;;;;;;;91.70;49.37;;;5.60;99.90;;;;;;5071494;28;20441;-78
2022/12/01 01:28:40;;;;;;;95.27;47.80;;;5.60;99.90;;;;;;5072589;28;20437;-78
2022/12/01 01:31:10;;;;;;;88.90;49.17;;;5.60;99.90;;;;;;5072037;28;20449;-78
2022/12/01 01:33:40;;;;;;;84.97;47.23;;;5.60;99.90;;;;;;5072087;28;20825;-79
2022/12/01 01:36:08;;;;;;;89.67;48.53;;;5.60;99.90;;;;;;5073781;28;20448;-78
2022/12/01 01:38:37;;;;;;;91.47;50.83;;;5.60;99.90;;;;;;5073595;28;20429;-78
2022/12/01 01:41:06;;;;;;;86.67;47.43;;;5.60;99.90;;;;;;5073521;28;20491;-79
2022/12/01 01:43:46;;;;;;;82.87;48.33;;;5.70;99.90;;;;;;5073590;28;20489;-78
2022/12/01 01:46:16;;;;;;;88.03;48.53;;;5.60;99.90;;;;;;5073916;28;20875;-79
2022/12/01 01:48:50;;;;;;;89.30;48.50;;;5.60;99.90;;;;;;5073306;28;20463;-78
2022/12/01 01:51:24;;;;;;;97.73;47.63;;;5.60;99.90;;;;;;5073284;28;20441;-79
2022/12/01 01:53:56;;;;;;;95.00;51.70;;;5.60;99.90;;;;;;5073506;28;20460;-78
2022/12/01 01:56:24;;;;;;;91.83;48.10;;;5.60;99.90;;;;;;5073518;28;20428;-78
2022/12/01 01:58:53;;;;;;;94.40;49.60;;;5.60;99.90;;;;;;5071984;28;20448;-78
2022/12/01 02:01:21;;;;;;;95.13;50.40;;;5.60;99.90;;;;;;5072227;28;20870;-79
2022/12/01 02:03:53;;;;;;;96.33;50.90;;;5.60;99.90;;;;;;5071803;28;20514;-78
2022/12/01 02:06:22;;;;;;;86.67;48.27;;;5.60;99.90;;;;;;5070834;28;20467;-79
2022/12/01 02:08:50;;;;;;;95.17;50.00;;;5.60;99.90;;;;;;5072034;28;20441;-78
2022/12/01 02:11:47;;;;;;;105.07;51.10;;;5.60;99.90;;;;;;5071804;28;20445;-78
2022/12/01 02:14:43;;;;;;;102.97;52.63;;;5.70;99.90;;;;;;5073440;28;20547;-78
2022/12/01 02:17:22;;;;;;;95.07;49.23;;;5.60;99.90;;;;;;5073140;28;20488;-78
2022/12/01 02:20:23;;;;;;;102.43;51.13;;;5.60;99.90;;;;;;5073012;28;20467;-78
2022/12/01 02:23:12;;;;;;;94.00;50.20;;;5.60;99.90;;;;;;5073017;28;20428;-78
2022/12/01 02:25:50;;;;;;;103.40;50.07;;;5.60;99.90;;;;;;5073478;28;20425;-78
2022/12/01 02:28:44;;;;;;;97.37;49.83;;;5.60;99.90;;;;;;5073176;28;20445;-78
2022/12/01 02:31:16;;;;;;;95.40;50.50;;;5.60;99.90;;;;;;5072009;28;20536;-78
2022/12/01 02:33:54;;;;;;;111.43;51.37;;;5.60;99.90;;;;;;5072744;28;20923;-78
2022/12/01 02:36:32;;;;;;;100.37;52.80;;;5.60;99.90;;;;;;5073299;28;20851;-78
2022/12/01 02:39:07;;;;;;;94.80;51.30;;;5.60;99.90;;;;;;5075361;28;20479;-78
2022/12/01 02:41:39;;;;;;;91.47;51.43;;;5.60;99.90;;;;;;5075278;28;20444;-78
2022/12/01 02:44:16;;;;;;;98.27;54.17;;;5.60;99.90;;;;;;5075217;28;20465;-78
2022/12/01 02:46:50;;;;;;;108.67;55.87;;;5.60;99.90;;;;;;5076805;28;20413;-79
2022/12/01 02:49:23;;;;;;;103.73;55.30;;;5.60;99.90;;;;;;5076969;28;20418;-78
2022/12/01 02:51:52;;;;;;;100.93;55.17;;;5.60;99.90;;;;;;5075006;28;20465;-78
2022/12/01 02:54:22;;;;;;;108.33;56.40;;;5.60;99.90;;;;;;5076330;28;20481;-79
2022/12/01 02:56:53;;;;;;;104.70;52.47;;;5.60;99.90;;;;;;5072811;28;20457;-79
2022/12/01 02:59:21;;;;;;;112.13;54.73;;;5.60;99.90;;;;;;5075298;28;20441;-79
2022/12/01 03:02:04;;;;;;;109.70;54.33;;;5.60;99.90;;;;;;5075025;28;20471;-79
2022/12/01 03:04:49;;;;;;;114.00;55.70;;;5.60;99.90;;;;;;5074953;28;20982;-79
2022/12/01 03:07:36;;;;;;;123.73;57.00;;;5.60;99.90;;;;;;5076497;28;20930;-79
2022/12/01 03:10:13;;;;;;;116.03;57.70;;;5.60;99.90;;;;;;5075213;28;20433;-79
2022/12/01 03:12:53;;;;;;;116.40;59.40;;;5.60;99.90;;;;;;5077181;28;20506;-78
2022/12/01 03:15:32;;;;;;;114.00;58.30;;;5.60;99.90;;;;;;5076879;28;20428;-79
2022/12/01 03:18:07;;;;;;;116.87;57.47;;;5.60;99.90;;;;;;5088662;28;20437;-78
2022/12/01 03:20:40;;;;;;;121.27;58.50;;;5.60;99.90;;;;;;5098534;28;20441;-77
2022/12/01 03:23:12;;;;;;;111.03;60.60;;;5.60;99.90;;;;;;5097236;28;20436;-78
2022/12/01 03:25:44;;;;;;;105.27;57.77;;;5.60;99.90;;;;;;5084540;28;20444;-77
2022/12/01 03:28:15;;;;;;;116.20;59.00;;;5.60;99.90;;;;;;5081262;28;20469;-78
2022/12/01 03:30:54;;;;;;;125.90;64.70;;;5.60;99.90;;;;;;5080521;28;21040;-79
2022/12/01 03:33:29;;;;;;;125.20;64.70;;;5.60;99.90;;;;;;5079632;28;20572;-78
2022/12/01 03:36:01;;;;;;;126.77;63.83;;;5.60;99.90;;;;;;5074777;28;20441;-78
2022/12/01 03:38:30;;;;;;;123.13;61.40;;;5.60;99.90;;;;;;5075622;28;20432;-78
2022/12/01 03:41:01;;;;;;;123.33;66.23;;;5.60;99.90;;;;;;5074914;28;20441;-78
2022/12/01 03:43:34;;;;;;;130.10;61.33;;;5.60;99.90;;;;;;5076037;28;20465;-79
2022/12/01 03:46:07;;;;;;;124.33;62.83;;;5.60;99.90;;;;;;5075462;28;20819;-79
2022/12/01 03:48:39;;;;;;;126.27;65.33;;;5.60;99.90;;;;;;5062600;28;20440;-79
2022/12/01 03:51:15;;;;;;;127.57;65.03;;;5.60;99.90;;;;;;5075535;28;20445;-79
2022/12/01 03:53:52;;;;;;;129.63;64.67;;;5.60;99.90;;;;;;5076776;28;20537;-79
2022/12/01 03:56:26;;;;;;;123.83;64.73;;;5.50;99.90;;;;;;5077730;28;20414;-79
2022/12/01 03:58:57;;;;;;;131.33;63.87;;;5.50;99.90;;;;;;5076253;28;20454;-78
2022/12/01 04:01:31;;;;;;;142.10;66.80;;;5.50;99.90;;;;;;5077044;28;20420;-78
2022/12/01 04:04:05;;;;;;;127.23;63.37;;;5.50;99.90;;;;;;5075258;28;20469;-79
2022/12/01 04:06:34;;;;;;;138.90;67.80;;;5.60;99.90;;;;;;5075327;28;20441;-79
2022/12/01 04:09:02;;;;;;;139.07;63.47;;;5.60;99.90;;;;;;5075057;28;20453;-79
2022/12/01 04:14:16;;;;;;;125.07;63.80;;;5.50;99.90;;;;;;5074174;28;20879;-79
2022/12/01 04:16:44;;;;;;;136.47;67.43;;;5.50;99.90;;;;;;5075509;28;20800;-79
2022/12/01 04:19:13;;;;;;;145.40;70.83;;;5.50;99.90;;;;;;5075479;28;20437;-79
2022/12/01 04:21:42;;;;;;;136.30;69.77;;;5.50;99.90;;;;;;5074119;28;20460;-79
2022/12/01 04:24:11;;;;;;;136.60;68.10;;;5.50;99.90;;;;;;5075741;28;20567;-79
2022/12/01 04:26:40;;;;;;;125.50;65.80;;;5.50;99.90;;;;;;5076307;28;20437;-79
2022/12/01 04:29:10;;;;;;;130.73;67.20;;;5.50;99.90;;;;;;5075743;28;20468;-79
2022/12/01 04:31:39;;;;;;;128.93;67.00;;;5.50;99.90;;;;;;5073338;28;20468;-79
2022/12/01 04:34:07;;;;;;;112.73;62.87;;;5.50;99.90;;;;;;5074862;28;20477;-79
2022/12/01 04:36:37;;;;;;;114.77;62.27;;;5.50;99.90;;;;;;5068692;28;20449;-78
2022/12/01 04:39:05;;;;;;;121.33;66.67;;;5.50;99.90;;;;;;5073286;28;20449;-78
2022/12/01 04:41:34;;;;;;;129.10;66.87;;;5.60;99.90;;;;;;5073489;28;20452;-79
2022/12/01 04:44:02;;;;;;;117.80;66.27;;;5.60;99.90;;;;;;5074160;28;20492;-79
2022/12/01 04:46:31;;;;;;;123.40;69.40;;;5.60;99.90;;;;;;5075680;28;20839;-79
2022/12/01 04:48:59;;;;;;;114.33;66.80;;;5.50;99.90;;;;;;5074409;28;20458;-79
2022/12/01 04:51:27;;;;;;;116.67;69.77;;;5.60;99.90;;;;;;5075916;28;20491;-79
2022/12/01 04:53:56;;;;;;;112.90;64.33;;;5.50;99.90;;;;;;5073423;28;20851;-79
2022/12/01 04:56:24;;;;;;;112.77;65.03;;;5.60;99.90;;;;;;5073051;28;20487;-79
2022/12/01 04:58:53;;;;;;;111.73;68.23;;;5.60;99.90;;;;;;5072843;28;20457;-78
2022/12/01 05:01:21;;;;;;;97.90;64.27;;;5.50;99.90;;;;;;5074543;28;20436;-79
2022/12/01 05:03:49;;;;;;;105.13;67.90;;;5.50;99.90;;;;;;5072857;28;20559;-78
2022/12/01 05:06:19;;;;;;;108.80;65.60;;;5.50;99.90;;;;;;5074603;28;20479;-79
2022/12/01 05:08:48;;;;;;;102.90;67.30;;;5.50;99.90;;;;;;5072731;28;20454;-79
2022/12/01 05:11:18;;;;;;;106.67;69.13;;;5.50;99.90;;;;;;5073146;28;20445;-79
2022/12/01 05:13:47;;;;;;;111.40;69.67;;;5.60;99.90;;;;;;5074353;28;20473;-78
2022/12/01 05:16:17;;;;;;;107.30;68.30;;;5.50;99.90;;;;;;5072480;28;20448;-78
2022/12/01 05:18:48;;;;;;;109.87;68.20;;;5.50;99.90;;;;;;5073662;28;20453;-78
2022/12/01 05:21:16;;;;;;;106.47;71.03;;;5.50;99.90;;;;;;5072404;28;20437;-78
2022/12/01 05:23:44;;;;;;;119.33;75.60;;;5.50;99.90;;;;;;5072177;28;20845;-78
2022/12/01 05:26:12;;;;;;;105.50;68.07;;;5.50;99.90;;;;;;5071994;28;20831;-78
2022/12/01 05:28:42;;;;;;;115.60;72.20;;;5.50;99.90;;;;;;5071069;28;20441;-78
2022/12/01 05:31:10;;;;;;;107.87;69.23;;;5.50;99.90;;;;;;5073417;28;20455;-78
2022/12/01 05:33:38;;;;;;;113.03;72.40;;;5.50;99.90;;;;;;5073021;28;20484;-78
2022/12/01 05:36:07;;;;;;;117.50;77.73;;;5.50;99.90;;;;;;5073914;28;20429;-78
2022/12/01 05:38:35;;;;;;;110.37;71.97;;;5.50;99.90;;;;;;5073663;28;20444;-78
2022/12/01 05:41:03;;;;;;;115.13;73.10;;;5.50;99.90;;;;;;5072238;28;20872;-78
2022/12/01 05:43:31;;;;;;;116.40;72.13;;;5.50;99.90;;;;;;5073460;28;20863;-78
2022/12/01 05:46:01;;;;;;;113.90;73.03;;;5.50;99.90;;;;;;5073602;28;20445;-78
2022/12/01 05:48:29;;;;;;;114.30;75.00;;;5.50;99.90;;;;;;5072071;28;20498;-78
2022/12/01 05:50:57;;;;;;;108.03;73.33;;;5.60;99.90;;;;;;5072010;28;20441;-78
2022/12/01 05:53:25;;;;;;;104.00;73.60;;;5.50;99.90;;;;;;5072015;28;20538;-78
2022/12/01 05:55:54;;;;;;;108.20;74.77;;;5.50;99.90;;;;;;5072233;28;20445;-78
2022/12/01 05:58:22;;;;;;;112.30;74.93;;;5.50;99.90;;;;;;5073668;28;20522;-78
2022/12/01 06:00:50;;;;;;;104.73;70.17;;;5.50;99.90;;;;;;5073769;28;20437;-79
2022/12/01 06:03:19;;;;;;;117.37;75.07;;;5.60;99.90;;;;;;5073184;28;20461;-78
2022/12/01 06:05:48;;;;;;;110.87;75.30;;;5.50;99.90;;;;;;5071872;28;20445;-78
2022/12/01 06:08:16;;;;;;;111.67;76.20;;;5.50;99.90;;;;;;5071866;28;20469;-78
2022/12/01 06:10:44;;;;;;;111.43;75.00;;;5.50;99.90;;;;;;5071788;28;20859;-78
2022/12/01 06:13:12;;;;;;;104.83;72.33;;;5.50;99.90;;;;;;5076706;28;20441;-78
2022/12/01 06:15:40;;;;;;;113.67;74.20;;;5.50;99.90;;;;;;5077015;28;20465;-78
2022/12/01 06:18:08;;;;;;;114.10;75.07;;;5.50;99.90;;;;;;5072585;28;20452;-78
2022/12/01 06:20:38;;;;;;;116.17;77.03;;;5.50;99.90;;;;;;5075731;28;20453;-78
2022/12/01 06:23:06;;;;;;;112.90;76.73;;;5.50;99.90;;;;;;5075579;28;20440;-78
2022/12/01 06:25:34;;;;;;;124.30;76.50;;;5.50;99.90;;;;;;5077125;28;20430;-78
2022/12/01 06:28:03;;;;;;;115.20;74.00;;;5.50;99.90;;;;;;5075589;28;20610;-78
2022/12/01 06:30:31;;;;;;;109.20;75.93;;;5.50;99.90;;;;;;5075424;28;20453;-78
2022/12/01 06:32:59;;;;;;;109.03;74.83;;;5.50;99.90;;;;;;5077260;28;20425;-78
2022/12/01 06:39:40;;;;;;;113.90;72.30;;;5.50;99.90;;;;;;5076975;28;20761;-78
2022/12/01 06:42:09;;;;;;;114.47;74.70;;;5.50;99.90;;;;;;5076618;28;20465;-78
2022/12/01 06:44:37;;;;;;;112.80;71.53;;;5.40;99.90;;;;;;5075449;28;20534;-78
2022/12/01 06:47:06;;;;;;;108.23;76.00;;;5.50;99.90;;;;;;5076405;28;20439;-78
2022/12/01 06:49:35;;;;;;;108.90;73.27;;;5.50;99.90;;;;;;5075342;28;20453;-78
2022/12/01 06:52:03;;;;;;;118.03;74.37;;;5.40;99.90;;;;;;5075193;28;20448;-78
2022/12/01 06:54:31;;;;;;;111.80;77.73;;;5.50;99.90;;;;;;5076207;28;20476;-78
2022/12/01 06:57:01;;;;;;;115.67;76.80;;;5.40;99.90;;;;;;5076283;28;20942;-78
2022/12/01 06:59:29;;;;;;;115.17;78.27;;;5.40;99.90;;;;;;5075081;28;20554;-78
2022/12/01 07:01:57;;;;;;;112.43;73.87;;;5.40;99.90;;;;;;5082114;28;20866;-79
2022/12/01 07:04:26;;;;;;;112.90;74.23;;;5.40;99.90;;;;;;5082263;28;20526;-79
2022/12/01 07:06:54;;;;;;;112.03;74.83;;;5.40;99.90;;;;;;5075393;28;20441;-78
2022/12/01 07:09:22;;;;;;;115.67;75.30;;;5.40;99.90;;;;;;5077141;28;20502;-79
2022/12/01 07:11:50;;;;;;;112.50;77.83;;;5.50;99.90;;;;;;5079002;28;20445;-78
2022/12/01 07:14:22;;;;;;;115.70;78.93;;;5.40;99.90;;;;;;5077695;28;20486;-78
2022/12/01 07:16:51;;;;;;;116.83;74.00;;;5.40;99.90;;;;;;5076991;28;20456;-78
2022/12/01 07:19:19;;;;;;;116.13;75.67;;;5.50;99.90;;;;;;5076366;28;20451;-78
2022/12/01 07:21:47;;;;;;;111.93;76.23;;;5.40;99.90;;;;;;5077306;28;20446;-78
2022/12/01 07:24:15;;;;;;;120.73;79.00;;;5.40;99.90;;;;;;5074232;28;20484;-78
2022/12/01 07:26:44;;;;;;;113.93;77.10;;;5.40;99.90;;;;;;5076777;28;20439;-78
2022/12/01 07:29:12;;;;;;;121.23;79.33;;;5.40;99.90;;;;;;5075175;28;20460;-78
2022/12/01 07:31:41;;;;;;;121.60;77.93;;;5.40;99.90;;;;;;5075919;28;20476;-79
2022/12/01 07:34:11;;;;;;;106.07;71.83;;;5.40;99.90;;;;;;5074464;28;21002;-78
2022/12/01 07:36:39;;;;;;;117.23;77.50;;;5.40;99.90;;;;;;5074526;28;20497;-78
2022/12/01 07:39:08;;;;;;;113.77;75.00;;;5.40;99.90;;;;;;5075917;28;20499;-78
2022/12/01 07:41:36;;;;;;;114.80;79.40;;;5.40;99.90;;;;;;5074417;28;20449;-78
2022/12/01 07:44:04;;;;;;;113.80;75.23;;;5.40;99.90;;;;;;5074355;28;20472;-78
2022/12/01 07:46:33;;;;;;;114.33;79.57;;;5.40;99.90;;;;;;5075406;28;20439;-78
2022/12/01 07:49:05;;;;;;;108.53;77.33;;;5.40;99.90;;;;;;5074111;28;20823;-78
2022/12/01 07:51:34;;;;;;;107.77;75.77;;;5.40;99.90;;;;;;5074263;28;20445;-78
2022/12/01 07:54:04;;;;;;;108.07;73.33;;;5.40;99.90;;;;;;5075606;28;20469;-78
2022/12/01 07:56:32;;;;;;;109.17;75.50;;;5.40;99.90;;;;;;5072521;28;20480;-79
2022/12/01 07:59:00;;;;;;;112.07;74.13;;;5.40;99.90;;;;;;5073986;28;20483;-78
2022/12/01 08:01:28;;;;;;;104.77;73.70;;;5.40;99.90;;;;;;5073904;28;20453;-78
2022/12/01 08:03:58;;;;;;;105.83;71.17;;;5.40;99.90;;;;;;5073984;28;20994;-78
2022/12/01 08:06:27;;;;;;;109.70;77.70;;;5.40;99.90;;;;;;5075380;28;20515;-78
2022/12/01 08:08:56;;;;;;;107.80;71.47;;;5.40;99.90;;;;;;5073995;28;20442;-78
2022/12/01 08:11:28;;;;;;;115.80;75.23;;;5.40;99.90;;;;;;5073736;28;20453;-78
2022/12/01 08:13:56;;;;;;;104.53;73.13;;;5.30;99.90;;;;;;5073683;28;20461;-78
2022/12/01 08:16:25;;;;;;;105.67;72.43;;;5.30;99.90;;;;;;5074965;28;20468;-78
2022/12/01 08:18:53;;;;;;;104.83;75.07;;;5.30;99.90;;;;;;5073439;28;20445;-79
2022/12/01 08:21:23;;;;;;;105.43;71.10;;;5.30;99.90;;;;;;5074752;28;20495;-77
2022/12/01 08:23:55;;;;;;;101.60;72.13;;;5.30;99.90;;;;;;5073300;28;20465;-79
2022/12/01 08:26:24;;;;;;;100.20;70.17;;;5.30;99.90;;;;;;5074951;28;20421;-78
2022/12/01 08:28:53;;;;;;;93.90;68.63;;;5.30;99.90;;;;;;5074459;28;20437;-78
2022/12/01 08:31:23;;;;;;;93.30;66.30;;;5.30;99.90;;;;;;5074329;28;20456;-79
2022/12/01 08:33:53;;;;;;;97.50;66.50;;;5.30;99.90;;;;;;5074746;28;20457;-78
2022/12/01 08:36:22;;;;;;;93.07;66.27;;;5.30;99.90;;;;;;5074059;28;20523;-78
2022/12/01 08:38:52;;;;;;;92.30;66.60;;;5.30;99.90;;;;;;5073702;28;20455;-78
2022/12/01 08:41:23;;;;;;;91.13;65.73;;;5.30;99.90;;;;;;5073163;28;20461;-78
2022/12/01 08:43:51;;;;;;;94.93;69.03;;;5.30;99.90;;;;;;5074530;28;20581;-78
2022/12/01 08:46:29;;;;;;;95.33;67.80;;;5.30;99.90;;;;;;5069096;28;20992;-78
2022/12/01 08:48:57;;;;;;;93.73;66.90;;;5.20;99.90;;;;;;5054263;28;20460;-77
2022/12/01 08:51:26;;;;;;;94.13;68.13;;;5.20;99.90;;;;;;5052885;28;20533;-78
2022/12/01 08:53:55;;;;;;;93.37;68.93;;;5.30;99.90;;;;;;5053993;28;20473;-78
2022/12/01 08:56:28;;;;;;;99.60;68.40;;;5.20;99.90;;;;;;5054168;28;20472;-78
2022/12/01 08:58:56;;;;;;;82.50;59.40;;;5.20;99.90;;;;;;5052789;28;20445;-78
2022/12/01 09:01:25;;;;;;;83.20;59.00;;;5.30;99.90;;;;;;5052643;28;20454;-78
2022/12/01 09:04:04;;;;;;;77.30;59.07;;;5.20;99.90;;;;;;5052777;28;20469;-78
2022/12/01 09:06:34;;;;;;;74.13;59.00;;;5.30;99.90;;;;;;5052916;28;20451;-78
2022/12/01 09:09:02;;;;;;;83.00;59.87;;;5.20;99.90;;;;;;5052505;28;20978;-78
2022/12/01 09:11:32;;;;;;;72.83;58.03;;;5.20;99.90;;;;;;5052745;28;20468;-78
2022/12/01 09:14:00;;;;;;;69.20;55.73;;;5.20;99.90;;;;;;5052348;28;20880;-77
2022/12/01 09:16:28;;;;;;;70.90;56.07;;;5.20;99.90;;;;;;5052368;28;21057;-77
2022/12/01 09:18:56;;;;;;;67.13;55.37;;;5.20;99.90;;;;;;5052370;28;20456;-77
2022/12/01 09:21:29;;;;;;;67.17;53.63;;;5.20;99.90;;;;;;5053563;28;20442;-77
2022/12/01 09:23:57;;;;;;;69.47;57.23;;;5.20;99.90;;;;;;5053787;28;20454;-78
2022/12/01 09:26:26;;;;;;;72.70;56.60;;;5.20;99.90;;;;;;5053468;28;20449;-78
2022/12/01 09:28:57;;;;;;;69.53;56.73;;;5.20;99.90;;;;;;5053669;28;20765;-77
2022/12/01 09:31:26;;;;;;;71.00;56.40;;;5.20;99.90;;;;;;5053853;28;20462;-78
2022/12/01 09:33:56;;;;;;;65.00;55.57;;;5.20;99.90;;;;;;5052139;28;20505;-78
2022/12/01 09:36:24;;;;;;;66.77;55.23;;;5.20;99.90;;;;;;5051619;28;20473;-78
2022/12/01 09:38:52;;;;;;;65.53;55.27;;;5.20;99.90;;;;;;5071403;28;20531;-78
2022/12/01 09:41:24;;;;;;;67.27;53.90;;;5.20;99.90;;;;;;5073711;28;20926;-77
2022/12/01 09:43:58;;;;;;;61.27;52.87;;;5.30;99.90;;;;;;5072140;28;21032;-78
2022/12/01 09:46:30;;;;;;;59.80;51.53;;;5.20;99.90;;;;;;5073119;28;20898;-78
2022/12/01 09:49:01;;;;;;;61.33;51.07;;;5.20;99.90;;;;;;5073206;28;20445;-78
2022/12/01 09:51:33;;;;;;;62.20;51.43;;;5.30;99.90;;;;;;5072232;28;20543;-78
2022/12/01 09:54:02;;;;;;;62.10;50.90;;;5.20;99.90;;;;;;5073544;28;20453;-78
2022/12/01 09:56:34;;;;;;;56.07;47.73;;;5.30;99.90;;;;;;5072023;28;20509;-78
2022/12/01 09:59:07;;;;;;;58.13;48.70;;;5.30;99.90;;;;;;5072020;28;20439;-78
2022/12/01 10:01:38;;;;;;;57.30;48.60;;;5.30;99.90;;;;;;5071886;28;20449;-77
2022/12/01 10:04:13;;;;;;;60.03;47.60;;;5.30;99.90;;;;;;5071924;28;20539;-77
2022/12/01 10:06:48;;;;;;;58.43;48.70;;;5.30;99.90;;;;;;5073472;28;20516;-77
2022/12/01 10:09:24;;;;;;;61.37;49.57;;;5.30;99.90;;;;;;5070866;28;20497;-78
2022/12/01 10:11:54;;;;;;;58.90;49.63;;;5.30;99.90;;;;;;5071292;28;20492;-78
2022/12/01 10:14:24;;;;;;;62.90;50.87;;;5.30;99.90;;;;;;5071448;28;20870;-78
2022/12/01 10:17:03;;;;;;;58.33;49.17;;;5.30;99.90;;;;;;5072911;28;20835;-77
2022/12/01 10:19:38;;;;;;;54.73;46.93;;;5.30;99.90;;;;;;5073252;28;20921;-77
2022/12/01 10:22:23;;;;;;;58.37;48.40;;;5.30;99.90;;;;;;5071741;28;21004;-77
2022/12/01 10:24:55;;;;;;;61.03;49.77;;;5.30;99.90;;;;;;5071625;28;20580;-78
2022/12/01 10:27:39;;;;;;;59.10;47.97;;;5.30;99.90;;;;;;5073184;28;20424;-78
2022/12/01 10:30:14;;;;;;;64.20;49.20;;;5.20;99.90;;;;;;5072912;28;20425;-77
2022/12/01 10:32:51;;;;;;;59.80;48.47;;;5.30;99.90;;;;;;5071758;28;20900;-77
2022/12/01 10:35:22;;;;;;;64.30;49.33;;;5.20;99.90;;;;;;5073375;28;20511;-77
2022/12/01 10:37:54;;;;;;;62.13;50.20;;;5.20;99.90;;;;;;5073367;28;20504;-78
2022/12/01 10:40:23;;;;;;;62.33;49.10;;;5.20;99.90;;;;;;5071503;28;20441;-78
2022/12/01 10:42:51;;;;;;;61.10;51.07;;;5.20;99.90;;;;;;5071772;28;20789;-78
2022/12/01 10:45:23;;;;;;;67.80;53.20;;;5.20;99.90;;;;;;5071460;28;20480;-78
2022/12/01 10:48:15;;;;;;;67.67;52.90;;;5.20;99.90;;;;;;5072753;28;20421;-78
2022/12/01 10:50:45;;;;;;;63.30;49.97;;;5.20;99.90;;;;;;5071713;28;20452;-78
2022/12/01 10:53:28;;;;;;;67.47;53.53;;;5.20;99.90;;;;;;5071270;28;20950;-78
2022/12/01 10:56:04;;;;;;;69.03;51.03;;;5.20;99.90;;;;;;5071580;28;20436;-78
2022/12/01 10:58:39;;;;;;;70.73;53.23;;;5.20;99.90;;;;;;5075083;28;20429;-78
2022/12/01 11:01:17;;;;;;;65.47;52.07;;;5.30;99.90;;;;;;5069233;28;20820;-78
2022/12/01 11:03:51;;;;;;;62.07;48.83;;;5.20;99.90;;;;;;5079059;28;21053;-78
2022/12/01 11:06:26;;;;;;;70.03;51.53;;;5.20;99.90;;;;;;5077118;28;20877;-77
2022/12/01 11:08:57;;;;;;;67.07;50.63;;;5.30;99.90;;;;;;5077625;28;20436;-78
2022/12/01 11:11:31;;;;;;;62.10;52.43;;;5.30;99.90;;;;;;5075386;28;20441;-79
2022/12/01 11:14:04;;;;;;;57.10;46.03;;;5.30;99.90;;;;;;5075120;28;20537;-78
2022/12/01 11:16:41;;;;;;;61.30;49.93;;;5.30;99.90;;;;;;5074789;28;20812;-79
2022/12/01 11:19:21;;;;;;;59.40;47.20;;;5.30;99.90;;;;;;5075090;28;20548;-78
2022/12/01 11:21:56;;;;;;;55.33;45.93;;;5.30;99.90;;;;;;5076880;28;20433;-79
2022/12/01 11:24:42;;;;;;;56.13;47.67;;;5.30;99.90;;;;;;5076064;28;20812;-78
2022/12/01 11:27:16;;;;;;;57.60;47.53;;;5.40;99.90;;;;;;5074797;28;20444;-78
2022/12/01 11:29:46;;;;;;;59.17;45.53;;;5.40;99.90;;;;;;5074557;28;20441;-78
2022/12/01 11:32:22;;;;;;;61.87;46.70;;;5.40;99.90;;;;;;5074571;28;20940;-78
2022/12/01 11:34:54;;;;;;;61.37;49.47;;;5.40;99.90;;;;;;5074625;28;20468;-78
2022/12/01 11:37:25;;;;;;;59.20;49.30;;;5.40;99.90;;;;;;5076075;28;20548;-78
2022/12/01 11:39:54;;;;;;;59.50;49.07;;;5.50;99.90;;;;;;5076202;28;20456;-78
2022/12/01 11:42:26;;;;;;;58.40;47.33;;;5.50;99.90;;;;;;5074370;28;20793;-78
2022/12/01 11:44:57;;;;;;;60.27;47.50;;;5.50;99.90;;;;;;5074661;28;21065;-78
2022/12/01 11:47:29;;;;;;;59.57;46.33;;;5.50;99.90;;;;;;5074465;28;20426;-78
2022/12/01 11:49:58;;;;;;;61.40;49.20;;;5.50;99.90;;;;;;5075435;28;20421;-78
2022/12/01 11:52:30;;;;;;;51.37;43.73;;;5.50;99.90;;;;;;5072994;28;20453;-78
2022/12/01 11:55:01;;;;;;;61.33;47.53;;;5.50;99.90;;;;;;5074098;28;20469;-78
2022/12/01 11:57:51;;;;;;;56.30;46.70;;;5.50;99.90;;;;;;5074054;28;20457;-78
2022/12/01 12:00:21;;;;;;;55.90;47.00;;;5.50;99.90;;;;;;5073979;28;20498;-78
2022/12/01 12:03:11;;;;;;;56.60;45.40;;;5.50;99.90;;;;;;5075150;28;20811;-78
2022/12/01 12:05:51;;;;;;;56.30;44.37;;;5.50;99.90;;;;;;5075506;28;20456;-78
2022/12/01 12:08:33;;;;;;;57.50;45.90;;;5.40;99.90;;;;;;5075279;28;20891;-78
2022/12/01 12:11:11;;;;;;;61.20;52.47;;;5.50;99.90;;;;;;5073060;28;20448;-78
2022/12/01 12:14:20;;;;;;;65.37;54.40;;;5.40;99.90;;;;;;5074956;28;20856;-77
2022/12/01 12:17:04;;;;;;;57.40;45.77;;;5.40;99.90;;;;;;5044811;28;20868;-78
2022/12/01 12:19:52;;;;;;;56.97;45.90;;;5.40;99.90;;;;;;5073680;28;20460;-77
2022/12/01 12:22:49;;;;;;;54.40;43.73;;;5.40;99.90;;;;;;5074655;28;20803;-78
2022/12/01 12:25:48;;;;;;;53.30;44.33;;;5.50;99.90;;;;;;5073483;28;20558;-78
2022/12/01 12:28:30;;;;;;;52.83;43.90;;;5.50;99.90;;;;;;5074904;28;20457;-78
2022/12/01 12:31:08;;;;;;;52.40;42.70;;;5.50;99.90;;;;;;5074932;28;20460;-78
2022/12/01 12:33:59;;;;;;;58.60;45.80;;;5.50;99.90;;;;;;5074726;28;20511;-78
2022/12/01 12:36:37;;;;;;;54.50;44.70;;;5.50;99.90;;;;;;5073221;28;20445;-78
2022/12/01 12:39:23;;;;;;;49.87;42.40;;;5.50;99.90;;;;;;5074769;28;20505;-78
2022/12/01 12:41:54;;;;;;;54.00;43.30;;;5.50;99.90;;;;;;5071979;28;20843;-78
2022/12/01 12:44:40;;;;;;;53.83;41.90;;;5.50;99.90;;;;;;5074274;28;20463;-78
2022/12/01 12:47:29;;;;;;;51.60;43.50;;;5.50;99.90;;;;;;5074497;28;20409;-77
2022/12/01 12:50:11;;;;;;;54.80;43.80;;;5.50;99.90;;;;;;5074423;28;20429;-78
2022/12/01 12:52:45;;;;;;;53.27;42.53;;;5.40;99.90;;;;;;5074378;28;20421;-78
2022/12/01 12:55:19;;;;;;;52.83;43.67;;;5.40;99.90;;;;;;5074336;28;20465;-78
2022/12/01 12:57:54;;;;;;;51.20;44.00;;;5.50;99.90;;;;;;5074366;28;20970;-78
2022/12/01 13:00:26;;;;;;;52.90;43.83;;;5.50;99.90;;;;;;5072996;28;20792;-78
2022/12/01 13:02:57;;;;;;;54.50;43.30;;;5.40;99.90;;;;;;5072733;28;20434;-78
2022/12/01 13:05:31;;;;;;;57.50;46.10;;;5.50;99.90;;;;;;5072628;28;20502;-78
2022/12/01 13:08:04;;;;;;;58.60;45.63;;;5.40;99.90;;;;;;5072799;28;20444;-78